Time;durP1;ratioP1;P1;durP2;ratioP2;P2;SDS_P1;SDS_P2;PMS_P1;PMS_P2;Temp;Humidity;BMP_temperature;BMP_pressure;BME280_temperature;BME280_humidity;BME280_pressure;Samples;Min_cycle;Max_cycle;Signal;HPM_P1;HPM_P2
2023/10/21 00:01:40;;;;;;;;;;;12.90;99.90;;;12.32;100.00;94712.75;5042792;28;1653;-77
2023/10/21 00:04:07;;;;;;;;;;;12.90;99.90;;;12.31;100.00;94711.91;5025771;28;1735;-76
2023/10/21 00:06:34;;;;;;;;;;;12.90;99.90;;;12.32;100.00;94713.56;5042062;28;1661;-75
2023/10/21 00:09:01;;;;;;;;;;;12.90;99.90;;;12.38;100.00;94716.53;5040318;28;1585;-75
2023/10/21 00:11:28;;;;;;;;;;;12.90;99.90;;;12.34;100.00;94716.03;5027757;28;1504;-76
2023/10/21 00:13:57;;;;;;;;;;;12.90;99.90;;;12.34;100.00;94710.81;5024645;28;1575;-75
2023/10/21 00:16:24;;;;;;;;;;;12.90;99.90;;;12.37;100.00;94722.72;5042298;28;1981;-76
2023/10/21 00:18:52;;;;;;;;;;;12.90;99.90;;;12.33;100.00;94727.38;5046245;28;1993;-77
2023/10/21 00:21:19;;;;;;;;;;;;;;;12.27;100.00;94710.59;5030855;28;1579;-74
2023/10/21 00:23:46;;;;;;;;;;;12.80;99.90;;;12.31;100.00;94709.31;5046911;28;1800;-76
2023/10/21 00:26:15;;;;;;;;;;;12.80;99.90;;;12.29;100.00;94697.41;5042244;28;1566;-76
2023/10/21 00:28:42;;;;;;;;;;;12.80;99.90;;;12.26;100.00;94727.13;5025879;28;1626;-76
2023/10/21 00:31:09;;;;;;;;;;;12.80;99.90;;;12.30;100.00;94738.06;5028763;28;1702;-76
2023/10/21 00:33:36;;;;;;;;;;;12.80;99.90;;;12.29;100.00;94731.22;5023051;28;1664;-77
2023/10/21 00:36:03;;;;;;;;;;;12.80;99.90;;;12.29;100.00;94710.41;5011110;28;1977;-76
2023/10/21 00:38:31;;;;;;;;;;;12.80;99.90;;;12.30;100.00;94710.28;5023128;28;1606;-76
2023/10/21 00:40:58;;;;;;;;;;;12.80;99.90;;;12.39;100.00;94725.97;5044775;28;1322;-75
2023/10/21 00:43:35;;;;;;;;;;;12.80;99.90;;;12.31;100.00;94735.31;5012070;28;1687;-76
2023/10/21 00:46:17;;;;;;;;;;;12.80;99.90;;;12.25;100.00;94727.31;5029688;28;1562;-74
2023/10/21 00:48:45;;;;;;;;;;;12.80;99.90;;;12.29;100.00;94728.63;5027442;28;1602;-76
2023/10/21 00:51:12;;;;;;;;;;;12.80;99.90;;;12.27;100.00;94727.94;5031381;28;1571;-76
2023/10/21 00:53:39;;;;;;;;;;;12.80;99.90;;;12.38;100.00;94714.75;5028037;28;1505;-77
2023/10/21 00:56:07;;;;;;;;;;;12.80;99.90;;;12.38;100.00;94766.75;5023648;28;1977;-75
2023/10/21 00:58:35;;;;;;;;;;;12.80;99.90;;;12.30;100.00;94775.31;5029114;28;1576;-75
2023/10/21 01:01:06;;;;;;;;;;;12.80;99.90;;;12.27;100.00;94782.56;5040759;28;1748;-75
2023/10/21 01:03:37;;;;;;;;;;;12.80;99.90;;;12.25;100.00;94798.31;5006764;28;1720;-76
2023/10/21 01:06:05;;;;;;;;;;;12.80;99.90;;;12.26;100.00;94807.75;5045126;28;1479;-76
2023/10/21 01:08:42;;;;;;;;;;;12.70;99.90;;;12.16;100.00;94791.38;5042044;28;1549;-76
2023/10/21 01:11:10;;;;;;;;;;;12.70;99.90;;;12.12;100.00;94829.84;5041612;28;1538;-76
2023/10/21 01:13:38;;;;;;;;;;;12.70;99.90;;;12.15;100.00;94849.53;5011293;28;1566;-76
2023/10/21 01:16:05;;;;;;;;;;;12.70;99.90;;;12.25;100.00;94867.72;5029089;28;2599;-76
2023/10/21 01:18:33;;;;;;;;;;;12.70;99.90;;;12.23;100.00;94848.84;5023644;28;1667;-75
2023/10/21 01:21:02;;;;;;;;;;;12.70;99.90;;;12.27;100.00;94848.41;5030371;28;1749;-76
2023/10/21 01:23:30;;;;;;;;;;;12.70;99.90;;;12.25;100.00;94859.94;5040162;28;1197;-75
2023/10/21 01:25:57;;;;;;;;;;;12.70;99.90;;;12.27;100.00;94881.38;5020044;28;1523;-75
2023/10/21 01:28:25;;;;;;;;;;;12.70;99.90;;;12.28;100.00;94885.66;5028638;28;1611;-75
2023/10/21 01:30:52;;;;;;;;;;;12.70;99.90;;;12.32;100.00;94911.22;5027188;28;1639;-75
2023/10/21 01:33:19;;;;;;;;;;;12.70;99.90;;;12.25;100.00;94894.56;5025232;28;1831;-75
2023/10/21 01:35:49;;;;;;;;;;;12.70;99.90;;;12.28;100.00;94933.28;5039646;28;1546;-75
2023/10/21 01:38:18;;;;;;;;;;;12.70;99.90;;;12.21;100.00;94939.19;5006741;28;1899;-75
2023/10/21 01:40:45;;;;;;;;;;;12.70;99.90;;;12.29;100.00;94919.31;5042612;28;1632;-76
2023/10/21 01:43:13;;;;;;;;;;;12.70;99.90;;;12.33;100.00;94990.06;5023196;28;1634;-75
2023/10/21 01:45:40;;;;;;;;;;;12.70;99.90;;;12.29;100.00;94952.28;5036512;28;1563;-75
2023/10/21 01:48:08;;;;;;;;;;;12.70;99.90;;;12.16;100.00;94975.16;5012122;28;1534;-74
2023/10/21 01:50:36;;;;;;;;;;;12.70;99.90;;;12.14;100.00;94981.34;5036410;28;1682;-74
2023/10/21 01:53:03;;;;;;;;;;;12.70;99.90;;;12.21;100.00;95004.19;5039529;28;1569;-75
2023/10/21 01:55:30;;;;;;;;;;;12.60;99.90;;;12.17;100.00;95003.63;5035895;28;1695;-76
2023/10/21 01:57:57;;;;;;;;;;;12.60;99.90;;;12.19;100.00;95014.72;5041094;28;1981;-75
2023/10/21 02:00:24;;;;;;;;;;;12.70;99.90;;;12.21;100.00;95012.81;5023445;28;1543;-75
2023/10/21 02:02:53;;;;;;;;;;;12.60;99.90;;;12.21;100.00;95018.03;5040455;28;1496;-75
2023/10/21 02:05:21;;;;;;;;;;;12.70;99.90;;;12.29;100.00;95043.31;5033391;28;1535;-75
2023/10/21 02:07:48;;;;;;;;;;;12.70;99.90;;;12.26;100.00;95047.03;5043723;28;1598;-74
2023/10/21 02:10:17;;;;;;;;;;;12.70;99.90;;;12.26;100.00;95035.81;5042125;28;1558;-75
2023/10/21 02:12:44;;;;;;;;;;;12.70;99.90;;;12.25;100.00;95054.97;5025790;28;1641;-74
2023/10/21 02:15:16;;;;;;;;;;;12.70;99.90;;;12.24;100.00;95056.75;5038088;28;1765;-75
2023/10/21 02:17:45;;;;;;;;;;;12.70;99.90;;;12.23;100.00;95065.50;5024676;28;1915;-75
2023/10/21 02:20:14;;;;;;;;;;;12.70;99.90;;;12.14;100.00;95054.16;5035593;28;1529;-76
2023/10/21 02:22:42;;;;;;;;;;;12.70;99.90;;;12.19;100.00;95052.94;5038184;28;1565;-77
2023/10/21 02:25:13;;;;;;;;;;;12.70;99.90;;;12.18;100.00;95085.06;5023097;28;1688;-77
2023/10/21 02:27:42;;;;;;;;;;;12.70;99.90;;;12.16;100.00;95087.81;5022366;28;1603;-76
2023/10/21 02:30:15;;;;;;;;;;;12.60;99.90;;;12.20;100.00;95088.34;5026404;28;1544;-77
2023/10/21 02:32:46;;;;;;;;;;;12.70;99.90;;;12.23;100.00;95067.31;5017433;28;1539;-76
2023/10/21 02:35:14;;;;;;;;;;;12.70;99.90;;;12.19;100.00;95076.31;5010632;28;1561;-76
2023/10/21 02:37:42;;;;;;;;;;;12.70;99.90;;;12.25;100.00;95123.41;5025594;28;1969;-77
2023/10/21 02:40:09;;;;;;;;;;;12.70;99.90;;;12.27;100.00;95115.47;5030347;28;1658;-76
2023/10/21 02:42:37;;;;;;;;;;;12.70;99.90;;;12.30;100.00;95125.63;5042217;28;1625;-74
2023/10/21 02:45:05;;;;;;;;;;;12.70;99.90;;;12.30;100.00;95126.44;5025986;28;1579;-76
2023/10/21 02:47:32;;;;;;;;;;;12.70;99.90;;;12.31;100.00;95112.44;5023067;28;1598;-75
2023/10/21 02:49:59;;;;;;;;;;;12.80;99.90;;;12.36;100.00;95151.06;5038255;28;1714;-76
2023/10/21 02:52:27;;;;;;;;;;;12.80;99.90;;;12.34;100.00;95147.81;5026540;28;1853;-74
2023/10/21 02:54:53;;;;;;;;;;;12.80;99.90;;;12.32;100.00;95134.09;5041816;28;1460;-76
2023/10/21 02:57:20;;;;;;;;;;;12.80;99.90;;;12.28;100.00;95166.53;5041777;28;1899;-76
2023/10/21 02:59:48;;;;;;;;;;;12.80;99.90;;;12.33;100.00;95146.97;5027489;28;1950;-76
2023/10/21 03:02:14;;;;;;;;;;;12.80;99.90;;;12.39;100.00;95169.03;5024873;28;1505;-75
2023/10/21 03:04:42;;;;;;;;;;;12.80;99.90;;;12.35;100.00;95171.06;5023266;28;1520;-75
2023/10/21 03:07:08;;;;;;;;;;;12.90;99.90;;;12.32;100.00;95175.72;5026593;28;1399;-76
2023/10/21 03:09:35;;;;;;;;;;;12.80;99.90;;;12.26;100.00;95184.06;5025360;28;1386;-75
2023/10/21 03:12:04;;;;;;;;;;;12.80;99.90;;;12.28;100.00;95192.56;5039710;28;1465;-76
2023/10/21 03:14:31;;;;;;;;;;;12.80;99.90;;;12.30;100.00;95198.44;5020827;28;1513;-75
2023/10/21 03:16:58;;;;;;;;;;;12.90;99.90;;;12.45;100.00;95211.88;5034036;28;1903;-76
2023/10/21 03:19:24;;;;;;;;;;;12.90;99.90;;;12.40;100.00;95232.28;5043875;28;1568;-76
2023/10/21 03:21:51;;;;;;;;;;;12.80;99.90;;;12.31;100.00;95224.31;5011789;28;1458;-76
2023/10/21 03:24:18;;;;;;;;;;;12.90;99.90;;;12.24;100.00;95236.19;5043971;28;1464;-76
2023/10/21 03:26:45;;;;;;;;;;;12.90;99.90;;;12.25;100.00;95229.25;5041251;28;1188;-76
2023/10/21 03:29:12;;;;;;;;;;;12.90;99.90;;;12.24;100.00;95238.78;5020764;28;1573;-76
2023/10/21 03:31:40;;;;;;;;;;;12.90;99.90;;;12.28;100.00;95248.00;5038900;28;1457;-76
2023/10/21 03:34:10;;;;;;;;;;;12.90;99.90;;;12.24;100.00;95253.59;5028785;28;1560;-76
2023/10/21 03:36:36;;;;;;;;;;;12.90;99.90;;;12.34;100.00;95265.69;5029825;28;2019;-76
2023/10/21 03:39:04;;;;;;;;;;;12.90;99.90;;;12.35;100.00;95264.72;5029926;28;1608;-76
2023/10/21 03:41:32;;;;;;;;;;;12.90;99.90;;;12.23;100.00;95263.19;5028211;28;1431;-74
2023/10/21 03:43:59;;;;;;;;;;;12.90;99.90;;;12.29;100.00;95273.06;5026036;28;1359;-75
2023/10/21 03:46:26;;;;;;;;;;;12.90;99.90;;;12.26;100.00;95273.31;5026290;28;1391;-75
2023/10/21 03:48:53;;;;;;;;;;;12.90;99.90;;;12.26;100.00;95278.50;5029156;28;1743;-76
2023/10/21 03:51:20;;;;;;;;;;;12.90;99.90;;;12.23;100.00;95281.38;5028593;28;1326;-77
2023/10/21 03:54:05;;;;;;;;;;;12.90;99.90;;;12.34;100.00;95302.09;5025289;28;1392;-75
2023/10/21 03:56:32;;;;;;;;;;;12.90;99.90;;;12.18;100.00;95290.50;5014431;28;1807;-76
2023/10/21 03:58:59;;;;;;;;;;;12.90;99.90;;;12.29;100.00;95311.22;5045360;28;1977;-76
2023/10/21 04:01:26;;;;;;;;;;;12.90;99.90;;;12.31;100.00;95309.31;5044551;28;1628;-76
2023/10/21 04:03:53;;;;;;;;;;;12.90;99.90;;;12.25;100.00;95291.66;5044666;28;1594;-76
2023/10/21 04:06:38;;;;;;;;;;;12.90;99.90;;;12.26;100.00;95312.31;5042254;28;1433;-76
2023/10/21 04:09:05;;;;;;;;;;;12.90;99.90;;;12.29;100.00;95322.47;5023968;28;1392;-76
2023/10/21 04:11:31;;;;;;;;;;;12.90;99.90;;;12.21;100.00;95337.09;5028532;28;1389;-76
2023/10/21 04:13:59;;;;;;;;;;;12.90;99.90;;;12.20;100.00;95340.63;5026795;28;1491;-76
2023/10/21 04:16:26;;;;;;;;;;;12.80;99.90;;;12.16;100.00;95327.06;5023455;28;1446;-77
2023/10/21 04:18:53;;;;;;;;;;;12.80;99.90;;;12.08;100.00;95339.91;5043754;28;1985;-77
2023/10/21 04:21:20;;;;;;;;;;;12.90;99.90;;;12.09;100.00;95344.16;5042758;28;1669;-76
2023/10/21 04:23:48;;;;;;;;;;;12.80;99.90;;;12.02;100.00;95349.03;5009395;28;1152;-76
2023/10/21 04:26:15;;;;;;;;;;;12.80;99.90;;;12.05;100.00;95358.38;5025479;28;1459;-76
2023/10/21 04:28:42;;;;;;;;;;;12.70;99.90;;;11.95;100.00;95365.28;5041448;28;1437;-77
2023/10/21 04:31:09;;;;;;;;;;;12.70;99.90;;;11.90;100.00;95371.66;5043582;28;1646;-75
2023/10/21 04:33:36;;;;;;;;;;;12.60;99.90;;;11.83;100.00;95360.09;5025371;28;1376;-76
2023/10/21 04:36:03;;;;;;;;;;;12.60;99.90;;;11.83;100.00;95364.50;5030114;28;1557;-77
2023/10/21 04:38:31;;;;;;;;;;;12.50;99.90;;;11.86;100.00;95359.88;5024490;28;1906;-76
2023/10/21 04:40:58;;;;;;;;;;;12.50;99.90;;;11.86;100.00;95359.88;5026457;28;1477;-74
2023/10/21 04:43:25;;;;;;;;;;;12.50;99.90;;;11.79;100.00;95363.09;5027285;28;1430;-77
2023/10/21 04:45:52;;;;;;;;;;;12.50;99.90;;;11.79;100.00;95370.88;5043279;28;1479;-77
2023/10/21 04:48:19;;;;;;;;;;;12.50;99.90;;;11.79;100.00;95356.13;5042994;28;1510;-76
2023/10/21 04:50:47;;;;;;;;;;;12.50;99.90;;;11.81;100.00;95361.19;5025219;28;1685;-77
2023/10/21 04:53:15;;;;;;;;;;;12.50;99.90;;;11.79;100.00;95378.69;5040347;28;1487;-75
2023/10/21 04:55:42;;;;;;;;;;;12.50;99.90;;;11.81;100.00;95397.56;5038467;28;1703;-75
2023/10/21 04:58:09;;;;;;;;;;;12.50;99.90;;;11.80;100.00;95401.97;5027385;28;1979;-75
2023/10/21 05:00:36;;;;;;;;;;;12.50;99.90;;;11.82;100.00;95407.03;5026242;28;1739;-73
2023/10/21 05:03:03;;;;;;;;;;;12.50;99.90;;;11.72;100.00;95399.16;5038453;28;1429;-76
2023/10/21 05:05:31;;;;;;;;;;;12.50;99.90;;;11.78;100.00;95403.03;5038144;28;1385;-76
2023/10/21 05:07:58;;;;;;;;;;;12.50;99.90;;;11.72;100.00;95410.38;5039991;28;2040;-76
2023/10/21 05:10:25;;;;;;;;;;;12.50;99.90;;;11.65;100.00;95411.81;5037720;28;1364;-75
2023/10/21 05:12:52;;;;;;;;;;;12.40;99.90;;;11.69;100.00;95433.19;5023685;28;1498;-75
2023/10/21 05:15:19;;;;;;;;;;;12.40;99.90;;;11.68;100.00;95434.97;5012658;28;1704;-75
2023/10/21 05:17:46;;;;;;;;;;;12.40;99.90;;;11.69;100.00;95434.00;5041827;28;1974;-75
2023/10/21 05:20:13;;;;;;;;;;;12.30;99.90;;;11.71;100.00;95459.88;5037781;28;1402;-74
2023/10/21 05:22:40;;;;;;;;;;;12.30;99.90;;;11.73;100.00;95456.22;5043053;28;1623;-74
2023/10/21 05:25:09;;;;;;;;;;;12.40;99.90;;;11.69;100.00;95456.59;5027034;28;1462;-76
2023/10/21 05:27:36;;;;;;;;;;;12.40;99.90;;;11.65;100.00;95468.16;5018277;28;1614;-73
2023/10/21 05:30:03;;;;;;;;;;;12.40;99.90;;;11.63;100.00;95502.09;5025462;28;1589;-75
2023/10/21 05:32:30;;;;;;;;;;;12.30;99.90;;;11.54;100.00;95499.38;5027442;28;1495;-75
2023/10/21 05:35:00;;;;;;;;;;;12.30;99.90;;;11.59;100.00;95524.06;5045582;28;1350;-74
2023/10/21 05:37:27;;;;;;;;;;;12.20;99.90;;;11.54;100.00;95533.16;5024432;28;1985;-74
2023/10/21 05:39:54;;;;;;;;;;;12.20;99.90;;;11.36;100.00;95551.84;5041470;28;1381;-75
2023/10/21 05:42:21;;;;;;;;;;;12.10;99.90;;;11.28;100.00;95541.22;5040773;28;1631;-74
2023/10/21 05:44:48;;;;;;;;;;;12.10;99.90;;;11.27;100.00;95540.41;5040515;28;1687;-74
2023/10/21 05:47:16;;;;;;;;;;;12.00;99.90;;;11.26;100.00;95549.13;5025778;28;1414;-73
2023/10/21 05:49:43;;;;;;;;;;;12.00;99.90;;;11.21;100.00;95559.06;5040162;28;1577;-75
2023/10/21 05:52:10;;;;;;;;;;;12.00;99.90;;;11.28;100.00;95565.41;5040430;28;1500;-76
2023/10/21 05:54:37;;;;;;;;;;;12.00;99.90;;;11.38;100.00;95575.09;5040772;28;1706;-75
2023/10/21 05:57:04;;;;;;;;;;;12.00;99.90;;;11.28;100.00;95570.63;5011607;28;1474;-75
2023/10/21 05:59:32;;;;;;;;;;;12.00;99.90;;;11.36;100.00;95588.22;5023849;28;1926;-75
2023/10/21 06:01:59;;;;;;;;;;;12.00;99.90;;;11.29;100.00;95595.66;5039846;28;1646;-75
2023/10/21 06:04:26;;;;;;;;;;;12.00;99.90;;;11.29;100.00;95594.84;5041882;28;1560;-75
2023/10/21 06:06:57;;;;;;;;;;;12.00;99.90;;;11.26;100.00;95600.25;5020714;28;1542;-75
2023/10/21 06:09:26;;;;;;;;;;;12.00;99.90;;;11.33;100.00;95606.63;5024705;28;1661;-75
2023/10/21 06:11:53;;;;;;;;;;;12.10;99.90;;;11.33;100.00;95616.19;5027950;28;1468;-75
2023/10/21 06:14:21;;;;;;;;;;;12.10;99.90;;;11.44;100.00;95626.59;5034343;28;1367;-75
2023/10/21 06:16:48;;;;;;;;;;;12.10;99.90;;;11.32;100.00;95624.94;5038962;28;1456;-75
2023/10/21 06:19:18;;;;;;;;;;;12.10;99.90;;;11.24;100.00;95635.91;5040939;28;1991;-73
2023/10/21 06:21:44;;;;;;;;;;;12.00;99.90;;;11.28;100.00;95638.16;5023084;28;1391;-76
2023/10/21 06:24:12;;;;;;;;;;;12.10;99.90;;;11.35;100.00;95632.50;5024114;28;1399;-74
2023/10/21 06:26:39;;;;;;;;;;;12.10;99.90;;;11.45;100.00;95642.06;5024755;28;1489;-74
2023/10/21 06:29:06;;;;;;;;;;;12.10;99.90;;;11.49;100.00;95658.22;5040727;28;1664;-75
2023/10/21 06:31:35;;;;;;;;;;;12.10;99.90;;;11.42;100.00;95664.84;5041867;28;1552;-76
2023/10/21 06:34:02;;;;;;;;;;;12.10;99.90;;;11.49;100.00;95669.47;5043568;28;1576;-74
2023/10/21 06:36:29;;;;;;;;;;;12.20;99.90;;;11.41;100.00;95676.19;5037387;28;1373;-74
2023/10/21 06:38:57;;;;;;;;;;;12.10;99.90;;;11.39;100.00;95685.88;5041239;28;1919;-75
2023/10/21 06:41:24;;;;;;;;;;;12.20;99.90;;;11.36;100.00;95686.94;5009680;28;1367;-75
2023/10/21 06:43:51;;;;;;;;;;;12.20;99.90;;;11.44;100.00;95694.94;5038651;28;1362;-76
2023/10/21 06:46:19;;;;;;;;;;;12.10;99.90;;;11.44;100.00;95694.13;5024921;28;1378;-75
2023/10/21 06:48:48;;;;;;;;;;;12.10;99.90;;;11.46;100.00;95711.25;5015184;28;1566;-74
2023/10/21 06:51:16;;;;;;;;;;;12.10;99.90;;;11.44;100.00;95700.13;5022237;28;1651;-73
2023/10/21 06:53:44;;;;;;;;;;;12.10;99.90;;;11.40;100.00;95703.91;5038201;28;1479;-73
2023/10/21 06:56:12;;;;;;;;;;;12.10;99.90;;;11.38;100.00;95707.56;5023357;28;1442;-75
2023/10/21 06:58:39;;;;;;;;;;;12.10;99.90;;;11.33;100.00;95720.91;5022486;28;1987;-75
2023/10/21 07:01:07;;;;;;;;;;;12.10;99.90;;;11.39;100.00;95722.22;5027812;28;1481;-75
2023/10/21 07:03:34;;;;;;;;;;;12.10;99.90;;;11.35;100.00;95733.78;5021205;28;1520;-74
2023/10/21 07:06:01;;;;;;;;;;;12.10;99.90;;;11.32;100.00;95729.66;5027660;28;1668;-74
2023/10/21 07:08:27;;;;;;;;;;;12.10;99.90;;;11.34;100.00;95748.56;5043518;28;1381;-75
2023/10/21 07:10:55;;;;;;;;;;;12.10;99.90;;;11.35;100.00;95764.97;5045200;28;1454;-74
2023/10/21 07:13:21;;;;;;;;;;;12.00;99.90;;;11.35;100.00;95760.59;5043811;28;1651;-75
2023/10/21 07:15:51;;;;;;;;;;;12.00;99.90;;;11.36;100.00;95772.66;5007986;28;1039;-75
2023/10/21 07:18:18;;;;;;;;;;;12.00;99.90;;;11.38;100.00;95775.09;5027750;28;2008;-75
2023/10/21 07:20:46;;;;;;;;;;;12.00;99.90;;;11.43;100.00;95783.41;5019966;28;1527;-75
2023/10/21 07:23:14;;;;;;;;;;;12.00;99.90;;;11.46;100.00;95786.59;5040310;28;1660;-75
2023/10/21 07:25:42;;;;;;;;;;;12.00;99.90;;;11.33;100.00;95783.25;5028470;28;1361;-75
2023/10/21 07:28:10;;;;;;;;;;;12.00;99.90;;;11.32;100.00;95802.38;5006992;28;1396;-75
2023/10/21 07:30:37;;;;;;;;;;;12.00;99.90;;;11.30;100.00;95804.25;5016529;28;1394;-75
2023/10/21 07:33:04;;;;;;;;;;;12.10;99.90;;;11.35;100.00;95811.72;5028169;28;1481;-75
2023/10/21 07:35:31;;;;;;;;;;;12.10;99.90;;;11.39;100.00;95815.75;5048099;28;1528;-76
2023/10/21 07:37:59;;;;;;;;;;;12.10;99.90;;;11.39;100.00;95836.53;5025396;28;2005;-74
2023/10/21 07:40:29;;;;;;;;;;;12.10;99.90;;;11.50;100.00;95831.38;5028257;28;1470;-75
2023/10/21 07:42:57;;;;;;;;;;;12.20;99.90;;;11.50;100.00;95837.38;5028591;28;1545;-75
2023/10/21 07:45:25;;;;;;;;;;;12.20;99.90;;;11.61;100.00;95846.13;5040297;28;1529;-75
2023/10/21 07:47:52;;;;;;;;;;;12.30;99.90;;;11.64;100.00;95838.97;5007789;28;1396;-75
2023/10/21 07:50:19;;;;;;;;;;;12.30;99.90;;;11.60;100.00;95831.50;5040529;28;1549;-75
2023/10/21 07:52:46;;;;;;;;;;;12.40;99.90;;;11.81;100.00;95845.47;5023520;28;1344;-74
2023/10/21 07:55:13;;;;;;;;;;;12.30;99.90;;;11.64;100.00;95825.16;5026287;28;1260;-75
2023/10/21 07:57:40;;;;;;;;;;;12.30;99.90;;;11.70;100.00;95848.09;5022803;28;1365;-76
2023/10/21 08:00:08;;;;;;;;;;;12.40;99.90;;;11.86;100.00;95843.38;5040942;28;1906;-75
2023/10/21 08:02:35;;;;;;;;;;;12.50;99.90;;;11.83;100.00;95842.78;5042774;28;1378;-75
2023/10/21 08:05:03;;;;;;;;;;;12.50;99.90;;;11.86;100.00;95847.72;5028148;28;1527;-74
2023/10/21 08:07:30;;;;;;;;;;;12.60;99.90;;;11.91;100.00;95854.28;5044486;28;1414;-75
2023/10/21 08:09:58;;;;;;;;;;;12.70;99.90;;;12.08;100.00;95850.41;5031571;28;1123;-74
2023/10/21 08:12:25;;;;;;;;;;;12.80;99.90;;;12.20;100.00;95856.47;5040691;28;1383;-75
2023/10/21 08:14:52;;;;;;;;;;;12.80;99.90;;;12.26;100.00;95855.97;5030937;28;1062;-75
2023/10/21 08:17:22;;;;;;;;;;;12.80;99.90;;;12.22;100.00;95853.72;5028920;28;1475;-74
2023/10/21 08:19:48;;;;;;;;;;;12.80;99.90;;;12.24;100.00;95864.84;5038120;28;1910;-75
2023/10/21 08:22:15;;;;;;;;;;;12.90;99.90;;;12.32;100.00;95862.50;5021743;28;1300;-74
2023/10/21 08:24:42;;;;;;;;;;;13.00;99.90;;;12.42;100.00;95870.41;5023031;28;1075;-74
2023/10/21 08:27:11;;;;;;;;;;;13.10;99.90;;;12.29;100.00;95876.56;5021607;28;1459;-75
2023/10/21 08:29:38;;;;;;;;;;;13.10;99.90;;;12.12;100.00;95882.22;5040317;28;1581;-75
2023/10/21 08:32:05;;;;;;;;;;;13.10;99.90;;;12.21;100.00;95891.91;5024518;28;1570;-75
2023/10/21 08:34:32;;;;;;;;;;;12.90;99.90;;;12.04;100.00;95893.22;5043126;28;1146;-75
2023/10/21 08:37:00;;;;;;;;;;;12.90;99.90;;;12.03;100.00;95901.13;5039132;28;1372;-75
2023/10/21 08:39:26;;;;;;;;;;;12.80;99.90;;;12.09;100.00;95911.06;5028641;28;1898;-75
2023/10/21 08:41:54;;;;;;;;;;;12.80;99.90;;;12.12;100.00;95909.03;5024878;28;1458;-75
2023/10/21 08:44:20;;;;;;;;;;;12.70;99.90;;;12.03;100.00;95912.34;5041776;28;1088;-75
2023/10/21 08:46:49;;;;;;;;;;;12.70;99.90;;;12.02;100.00;95908.09;5028948;28;1337;-75
2023/10/21 08:49:19;;;;;;;;;;;12.80;99.90;;;12.16;100.00;95921.81;5042205;28;1725;-75
2023/10/21 08:51:47;;;;;;;;;;;12.70;99.90;;;12.13;100.00;95917.66;5028963;28;1368;-74
2023/10/21 08:54:16;;;;;;;;;;;12.90;99.90;;;12.07;100.00;95928.56;5026594;28;1082;-75
2023/10/21 08:56:43;;;;;;;;;;;12.90;99.90;;;12.16;100.00;95937.41;5026235;28;1426;-74
2023/10/21 08:59:10;;;;;;;;;;;12.90;99.90;;;12.17;100.00;95941.69;5020359;28;1910;-75
2023/10/21 09:01:37;;;;;;;;;;;12.90;99.90;;;12.22;100.00;95942.16;5020958;28;1405;-74
2023/10/21 09:04:07;;;;;;;;;;;13.00;99.90;;;12.38;100.00;95941.84;5023644;28;1492;-74
2023/10/21 09:06:35;;;;;;;;;;;13.00;99.90;;;12.35;100.00;95955.91;5009654;28;1388;-75
2023/10/21 09:09:04;;;;;;;;;;;13.00;99.90;;;12.37;100.00;95940.19;5030312;28;1462;-75
2023/10/21 09:11:31;;;;;;;;;;;13.10;99.90;;;12.37;100.00;95946.22;5024078;28;1479;-75
2023/10/21 09:14:01;;;;;;;;;;;13.10;99.90;;;12.47;100.00;95944.56;5036124;28;1055;-75
2023/10/21 09:16:31;;;;;;;;;;;13.10;99.90;;;12.51;100.00;95953.78;5019834;28;1687;-75
2023/10/21 09:19:10;;;;;;;;;;;13.20;99.90;;;12.40;100.00;95955.56;5026802;28;1981;-74
2023/10/21 09:21:42;;;;;;;;;;;13.20;99.90;;;12.53;100.00;95959.72;5022044;28;1375;-75
2023/10/21 09:24:20;;;;;;;;;;;13.20;99.90;;;12.54;100.00;95960.53;5026344;28;1548;-76
2023/10/21 09:26:48;;;;;;;;;;;13.30;99.90;;;12.66;100.00;95967.44;5039586;28;1108;-75
2023/10/21 09:29:20;;;;;;;;;;;13.20;99.90;;;12.62;100.00;95968.59;5033456;28;1424;-75
2023/10/21 09:31:49;;;;;;;;;;;13.30;99.90;;;12.79;100.00;95966.47;5022812;28;1693;-76
2023/10/21 09:34:30;;;;;;;;;;;13.40;99.90;;;13.07;100.00;95968.59;5021307;28;1238;-74
2023/10/21 09:37:05;;;;;;;;;;;13.50;99.90;;;13.04;100.00;95965.41;5028246;28;1970;-75
2023/10/21 09:39:34;;;;;;;;;;;13.60;99.90;;;13.07;100.00;95966.00;5024813;28;1979;-74
2023/10/21 09:42:03;;;;;;;;;;;13.60;99.90;;;13.16;100.00;95972.25;5036301;28;1480;-76
2023/10/21 09:44:30;;;;;;;;;;;13.70;99.90;;;13.23;100.00;95975.19;5022688;28;1504;-75
2023/10/21 09:47:00;;;;;;;;;;;13.70;99.90;;;13.28;100.00;95978.31;5023909;28;2003;-75
2023/10/21 09:49:28;;;;;;;;;;;13.80;99.90;;;13.26;100.00;95988.00;5009459;28;1833;-76
2023/10/21 09:52:06;;;;;;;;;;;13.80;99.90;;;13.43;100.00;95987.50;5004649;28;1366;-76
2023/10/21 09:54:40;;;;;;;;;;;13.80;99.90;;;13.45;100.00;95980.38;5007669;28;1150;-77
2023/10/21 09:57:11;;;;;;;;;;;13.90;99.90;;;13.28;100.00;95976.53;5019188;28;1026;-77
2023/10/21 09:59:40;;;;;;;;;;;14.10;99.90;;;13.38;100.00;96000.91;5003203;28;1899;-76
2023/10/21 10:02:09;;;;;;;;;;;14.00;99.90;;;13.32;100.00;95984.91;5007315;28;1394;-77
2023/10/21 10:04:39;;;;;;;;;;;14.00;99.90;;;13.55;100.00;95996.97;5012530;28;1442;-76
2023/10/21 10:07:07;;;;;;;;;;;13.90;99.90;;;13.46;100.00;95994.28;5007040;28;1406;-79
2023/10/21 10:09:44;;;;;;;;;;;14.00;99.90;;;13.96;100.00;95992.81;4995141;28;1105;-78
2023/10/21 10:12:52;;;;;;;;;;;14.30;99.90;;;14.12;100.00;95991.56;4993731;28;1476;-78
2023/10/21 10:15:39;;;;;;;;;;;14.40;99.90;;;14.16;100.00;95983.34;5021842;28;1657;-79
2023/10/21 10:18:19;;;;;;;;;;;14.60;99.90;;;14.15;100.00;95991.28;5026213;28;1344;-77
2023/10/21 10:20:49;;;;;;;;;;;14.70;99.90;;;14.11;100.00;95993.31;5003822;28;1136;-78
2023/10/21 10:23:19;;;;;;;;;;;14.80;99.90;;;14.34;100.00;95970.53;5022083;28;1828;-75
2023/10/21 10:25:51;;;;;;;;;;;14.90;99.90;;;14.00;100.00;96001.19;5003565;28;1253;-78
2023/10/21 10:28:20;;;;;;;;;;;14.80;99.90;;;13.91;100.00;95979.31;5022036;28;1070;-78
2023/10/21 10:30:51;;;;;;;;;;;14.70;99.90;;;14.07;100.00;96002.38;5007560;28;1368;-78
2023/10/21 10:33:22;;;;;;;;;;;14.80;99.90;;;13.87;100.00;95997.94;5020809;28;1413;-78
2023/10/21 10:35:51;;;;;;;;;;;14.70;99.90;;;14.02;100.00;96007.13;5002575;28;1396;-77
2023/10/21 10:38:24;;;;;;;;;;;14.60;99.90;;;14.30;100.00;96010.91;5016530;28;1136;-77
2023/10/21 10:41:11;;;;;;;;;;;14.70;99.90;;;14.09;100.00;96018.69;5010091;28;1161;-77
2023/10/21 10:43:44;;;;;;;;;;;14.80;99.90;;;14.29;100.00;96014.47;5003208;28;1060;-76
2023/10/21 10:46:19;;;;;;;;;;;14.80;99.90;;;14.33;100.00;96010.66;4987135;28;2553;-75
2023/10/21 10:48:47;;;;;;;;;;;14.80;99.90;;;14.46;100.00;96010.47;5009687;28;1742;-75
2023/10/21 10:51:15;;;;;;;;;;;15.00;99.90;;;14.74;100.00;96010.81;4999027;28;1594;-76
2023/10/21 10:53:46;;;;;;;;;;;15.10;99.90;;;14.57;100.00;96001.75;5002692;28;1413;-76
2023/10/21 10:56:18;;;;;;;;;;;15.20;99.90;;;14.64;100.00;96010.72;5011707;28;1133;-75
2023/10/21 10:58:47;;;;;;;;;;;15.10;99.90;;;15.00;100.00;96017.25;5002305;28;1906;-75
2023/10/21 11:01:21;;;;;;;;;;;15.10;99.90;;;14.90;100.00;96011.16;5004978;28;1391;-76
2023/10/21 11:03:55;;;;;;;;;;;15.30;99.90;;;15.32;100.00;95999.75;5008040;28;1518;-76
2023/10/21 11:06:26;;;;;;;;;;;15.70;99.90;;;14.93;100.00;96002.22;5017363;28;1019;-75
2023/10/21 11:08:54;;;;;;;;;;;15.50;99.90;;;15.03;100.00;96003.09;4990820;28;1385;-76
2023/10/21 11:11:21;;;;;;;;;;;15.60;99.90;;;15.12;100.00;95996.25;5004539;28;1558;-73
2023/10/21 11:13:48;;;;;;;;;;;15.90;99.90;;;15.31;100.00;96001.53;5018410;28;1560;-77
2023/10/21 11:16:15;;;;;;;;;;;15.80;99.90;;;15.24;100.00;95992.59;5038128;28;1361;-76
2023/10/21 11:18:42;;;;;;;;;;;15.90;99.90;;;14.87;100.00;95997.50;5024949;28;2013;-77
2023/10/21 11:21:10;;;;;;;;;;;15.80;99.90;;;14.61;100.00;96027.47;5039167;28;1602;-78
2023/10/21 11:23:37;;;;;;;;;;;15.60;99.90;;;14.66;100.00;96019.25;5040653;28;1553;-76